createdAt,value
2022-08-16T00:00:20.208Z,22.10
2022-08-16T00:02:50.044Z,22.24
2022-08-16T00:05:20.451Z,22.15
2022-08-16T00:07:48.885Z,22.15
2022-08-16T00:10:26.036Z,22.18
2022-08-16T00:12:53.944Z,21.95
2022-08-16T00:15:51.455Z,22.05
2022-08-16T00:18:15.857Z,21.20
2022-08-16T00:20:46.261Z,22.02
2022-08-16T00:23:14.123Z,22.02
2022-08-16T00:26:35.154Z,21.83
2022-08-16T00:28:30.957Z,21.97
2022-08-16T00:30:59.246Z,22.00
2022-08-16T00:33:28.479Z,21.97
2022-08-16T00:35:57.811Z,21.97
2022-08-16T00:38:40.281Z,21.49
2022-08-16T00:41:11.340Z,21.95
2022-08-16T00:43:42.769Z,21.93
2022-08-16T00:46:36.405Z,21.99
2022-08-16T00:49:20.721Z,21.81
2022-08-16T00:51:54.930Z,21.48
2022-08-16T00:54:27.114Z,21.80
2022-08-16T00:56:58.342Z,21.71
2022-08-16T00:59:32.862Z,21.75
2022-08-16T01:02:31.688Z,21.91
2022-08-16T01:05:09.631Z,21.91
2022-08-16T01:07:50.900Z,21.92
2022-08-16T01:10:32.949Z,21.92
2022-08-16T01:13:08.020Z,21.40
2022-08-16T01:15:37.801Z,21.67
2022-08-16T01:18:39.277Z,21.30
2022-08-16T01:21:07.422Z,21.77
2022-08-16T01:24:03.863Z,21.80
2022-08-16T01:26:35.538Z,21.20
2022-08-16T01:29:09.791Z,21.71
2022-08-16T01:31:42.894Z,21.68
2022-08-16T01:34:24.949Z,21.58
2022-08-16T01:37:07.878Z,21.63
2022-08-16T01:39:37.176Z,21.44
2022-08-16T01:42:12.290Z,21.54
2022-08-16T01:44:41.050Z,21.45
2022-08-16T01:47:09.645Z,21.29
2022-08-16T01:49:43.645Z,21.46
2022-08-16T01:52:30.108Z,20.81
2022-08-16T01:55:25.637Z,21.04
2022-08-16T01:58:03.191Z,21.16
2022-08-16T02:00:30.251Z,20.85
2022-08-16T02:02:59.275Z,20.91
2022-08-16T02:05:30.743Z,20.82
2022-08-16T02:08:00.898Z,21.33
2022-08-16T02:10:28.932Z,21.21
2022-08-16T02:12:59.994Z,21.42
2022-08-16T02:15:35.390Z,21.43
2022-08-16T02:18:12.677Z,21.43
2022-08-16T02:20:42.737Z,21.41
2022-08-16T02:23:13.746Z,21.30
2022-08-16T02:25:51.859Z,21.28
2022-08-16T02:28:23.732Z,21.41
2022-08-16T02:30:52.852Z,21.32
2022-08-16T02:33:43.596Z,21.39
2022-08-16T02:36:48.254Z,21.42
2022-08-16T02:39:08.182Z,21.39
2022-08-16T02:41:39.527Z,21.39
2022-08-16T02:44:11.194Z,21.38
2022-08-16T02:46:50.590Z,21.14
2022-08-16T02:49:21.936Z,21.44
2022-08-16T02:51:59.256Z,21.23
2022-08-16T02:54:29.163Z,21.30
2022-08-16T02:56:56.519Z,21.28
2022-08-16T02:59:24.353Z,21.45
2022-08-16T03:01:51.643Z,21.47
2022-08-16T03:04:39.347Z,21.47
2022-08-16T03:07:12.048Z,21.37
2022-08-16T03:09:48.634Z,20.77
2022-08-16T03:12:21.538Z,21.46
2022-08-16T03:14:58.108Z,21.69
2022-08-16T03:17:32.379Z,21.69
2022-08-16T03:20:04.277Z,21.42
2022-08-16T03:22:36.491Z,20.94
2022-08-16T03:25:12.790Z,21.46
2022-08-16T03:27:50.989Z,21.18
2022-08-16T03:30:22.232Z,20.97
2022-08-16T03:32:53.208Z,21.42
2022-08-16T03:35:32.721Z,21.48
2022-08-16T03:38:32.935Z,21.48
2022-08-16T03:41:00.789Z,21.42
2022-08-16T03:43:50.612Z,21.51
2022-08-16T03:46:47.506Z,21.25
2022-08-16T03:49:12.479Z,21.17
2022-08-16T03:51:43.117Z,21.35
2022-08-16T03:54:15.388Z,21.48
2022-08-16T03:56:57.587Z,21.64
2022-08-16T03:59:30.122Z,21.29
2022-08-16T04:02:01.680Z,21.60
2022-08-16T04:04:33.492Z,21.23
2022-08-16T04:07:07.249Z,21.89
2022-08-16T04:09:38.513Z,21.67
2022-08-16T04:12:53.350Z,21.68
2022-08-16T04:15:00.723Z,22.04
2022-08-16T04:17:30.575Z,22.14
2022-08-16T04:19:58.133Z,22.03
2022-08-16T04:22:27.721Z,21.89
2022-08-16T04:24:59.747Z,21.65
2022-08-16T04:27:34.471Z,22.30
2022-08-16T04:30:07.157Z,22.03
2022-08-16T04:32:44.327Z,22.38
2022-08-16T04:35:20.397Z,21.96
2022-08-16T04:37:53.829Z,22.02
2022-08-16T04:40:27.566Z,22.28
2022-08-16T04:43:00.796Z,22.60
2022-08-16T04:45:35.923Z,22.34
2022-08-16T04:48:10.550Z,22.79
2022-08-16T04:51:11.527Z,22.86
2022-08-16T04:53:46.323Z,22.56
2022-08-16T04:56:16.548Z,22.80
2022-08-16T04:58:46.755Z,22.62
2022-08-16T05:01:18.136Z,22.28
2022-08-16T05:04:00.221Z,23.15
2022-08-16T05:06:45.360Z,23.29
2022-08-16T05:09:38.879Z,23.34
2022-08-16T05:12:12.715Z,23.41
2022-08-16T05:15:01.744Z,22.51
2022-08-16T05:17:34.082Z,23.61
2022-08-16T05:20:38.795Z,23.45
2022-08-16T05:22:57.397Z,23.66
2022-08-16T05:25:24.515Z,23.80
2022-08-16T05:28:10.850Z,23.70
2022-08-16T05:30:43.810Z,23.32
2022-08-16T05:33:18.298Z,23.54
2022-08-16T05:35:55.159Z,24.08
2022-08-16T05:38:40.867Z,24.05
2022-08-16T05:41:13.928Z,23.58
2022-08-16T05:43:46.978Z,24.10
2022-08-16T05:46:43.569Z,24.38
2022-08-16T05:49:22.514Z,24.45
2022-08-16T05:51:57.503Z,24.03
2022-08-16T05:54:26.118Z,24.69
2022-08-16T05:56:59.865Z,24.53
2022-08-16T05:59:28.040Z,24.85
2022-08-16T06:01:57.017Z,24.90
2022-08-16T06:04:36.443Z,24.74
2022-08-16T06:07:24.341Z,25.05
2022-08-16T06:10:31.946Z,25.14
2022-08-16T06:13:02.120Z,24.29
2022-08-16T06:15:30.670Z,25.32
2022-08-16T06:17:59.492Z,25.30
2022-08-16T06:20:35.243Z,25.54
2022-08-16T06:23:17.755Z,25.75
2022-08-16T06:25:56.308Z,25.82
2022-08-16T06:28:34.943Z,26.05
2022-08-16T06:31:06.749Z,26.17
2022-08-16T06:33:41.052Z,25.96
2022-08-16T06:36:09.879Z,26.46
2022-08-16T06:38:39.240Z,26.54
2022-08-16T06:41:39.424Z,26.60
2022-08-16T06:44:10.895Z,26.54
2022-08-16T06:46:55.035Z,26.17
2022-08-16T06:49:23.601Z,26.45
2022-08-16T06:51:50.678Z,26.77
2022-08-16T06:54:24.748Z,26.26
2022-08-16T06:56:55.207Z,26.60
2022-08-16T06:59:25.643Z,26.75
2022-08-16T07:01:58.476Z,27.21
2022-08-16T07:04:33.299Z,27.26
2022-08-16T07:07:14.432Z,27.31
2022-08-16T07:09:42.324Z,27.43
2022-08-16T07:12:09.805Z,27.67
2022-08-16T07:14:41.637Z,27.74
2022-08-16T07:17:12.657Z,27.82
2022-08-16T07:20:30.106Z,27.91
2022-08-16T07:22:52.645Z,27.92
2022-08-16T07:25:34.787Z,27.77
2022-08-16T07:28:12.018Z,28.13
2022-08-16T07:30:48.419Z,28.19
2022-08-16T07:33:52.629Z,28.23
2022-08-16T07:36:21.703Z,28.23
2022-08-16T07:38:50.499Z,28.23
2022-08-16T07:41:18.608Z,28.28
2022-08-16T07:43:50.933Z,28.31
2022-08-16T07:46:38.651Z,28.65
2022-08-16T07:49:19.718Z,28.88
2022-08-16T07:51:48.386Z,28.49
2022-08-16T07:54:21.394Z,28.80
2022-08-16T07:57:11.319Z,28.99
2022-08-16T07:59:46.208Z,28.37
2022-08-16T08:02:20.062Z,29.25
2022-08-16T08:04:51.670Z,28.86
2022-08-16T08:07:20.687Z,28.38
2022-08-16T08:09:50.160Z,28.99
2022-08-16T08:12:32.303Z,29.14
2022-08-16T08:15:10.726Z,29.26
2022-08-16T08:17:42.580Z,29.32
2022-08-16T08:20:23.839Z,29.15
2022-08-16T08:23:00.696Z,29.11
2022-08-16T08:25:32.719Z,28.66
2022-08-16T08:28:18.772Z,29.07
2022-08-16T08:30:52.171Z,28.85
2022-08-16T08:33:31.674Z,29.02
2022-08-16T08:36:05.199Z,27.70
2022-08-16T08:38:45.858Z,28.66
2022-08-16T08:41:18.939Z,29.08
2022-08-16T08:43:52.088Z,28.72
2022-08-16T08:46:21.989Z,29.39
2022-08-16T08:48:59.743Z,29.35
2022-08-16T08:51:38.370Z,29.56
2022-08-16T08:54:14.313Z,29.65
2022-08-16T08:56:51.801Z,29.57
2022-08-16T08:59:28.230Z,29.08
2022-08-16T09:01:58.431Z,28.75
2022-08-16T09:04:33.237Z,29.64
2022-08-16T09:07:04.030Z,29.61
2022-08-16T09:09:34.184Z,29.75
2022-08-16T09:12:08.362Z,29.27
2022-08-16T09:15:01.962Z,29.09
2022-08-16T09:17:49.235Z,28.82
2022-08-16T09:20:20.297Z,29.28
2022-08-16T09:22:52.275Z,29.38
2022-08-16T09:25:26.024Z,29.02
2022-08-16T09:27:57.370Z,29.66
2022-08-16T09:30:34.498Z,29.75
2022-08-16T09:33:11.915Z,29.83
2022-08-16T09:35:39.497Z,29.84
2022-08-16T09:38:12.408Z,29.97
2022-08-16T09:40:59.135Z,30.08
2022-08-16T09:43:58.302Z,30.19
2022-08-16T09:46:44.663Z,30.46
2022-08-16T09:49:03.836Z,31.39
2022-08-16T09:51:37.425Z,31.99
2022-08-16T09:54:05.801Z,32.16
2022-08-16T09:56:35.717Z,32.17
2022-08-16T09:59:08.200Z,32.34
2022-08-16T10:01:38.626Z,32.33
2022-08-16T10:04:31.446Z,32.06
2022-08-16T10:09:44.897Z,31.82
2022-08-16T10:12:34.793Z,31.37
2022-08-16T10:15:17.028Z,31.48
2022-08-16T10:18:01.653Z,31.00
2022-08-16T10:20:34.870Z,30.90
2022-08-16T10:23:09.811Z,30.42
2022-08-16T10:27:00.758Z,30.49
2022-08-16T10:28:32.553Z,30.38
2022-08-16T10:31:11.918Z,29.32
2022-08-16T10:33:44.793Z,29.87
2022-08-16T10:36:38.150Z,29.88
2022-08-16T10:39:01.560Z,30.30
2022-08-16T10:41:29.184Z,30.42
2022-08-16T10:43:56.860Z,29.72
2022-08-16T10:46:39.261Z,30.02
2022-08-16T10:49:12.326Z,30.49
2022-08-16T10:52:02.717Z,30.60
2022-08-16T10:54:29.620Z,30.61
2022-08-16T10:57:04.135Z,30.68
2022-08-16T10:59:45.135Z,30.59
2022-08-16T11:02:58.615Z,30.67
2022-08-16T11:05:11.757Z,30.39
2022-08-16T11:07:45.554Z,30.46
2022-08-16T11:13:57.448Z,30.39
2022-08-16T11:19:06.140Z,29.21
2022-08-16T11:24:42.150Z,30.01
2022-08-16T11:27:23.398Z,30.04
2022-08-16T11:29:55.142Z,29.89
2022-08-16T11:32:31.260Z,29.97
2022-08-16T11:35:14.861Z,29.41
2022-08-16T11:38:47.213Z,29.81
2022-08-16T11:41:00.350Z,29.46
2022-08-16T11:43:33.489Z,29.87
2022-08-16T11:46:43.550Z,29.65
2022-08-16T11:48:51.850Z,29.72
2022-08-16T11:51:18.976Z,29.70
2022-08-16T11:53:46.373Z,29.78
2022-08-16T11:56:14.819Z,29.43
2022-08-16T11:58:42.209Z,29.80
2022-08-16T12:01:10.728Z,29.91
2022-08-16T12:03:38.310Z,30.11
2022-08-16T12:06:25.033Z,30.38
2022-08-16T12:09:01.088Z,30.09
2022-08-16T12:11:31.391Z,30.35
2022-08-16T12:14:01.341Z,30.13
2022-08-16T12:16:34.240Z,29.52
2022-08-16T12:19:10.465Z,30.50
2022-08-16T12:21:59.217Z,30.47
2022-08-16T12:24:26.178Z,30.13
2022-08-16T12:26:54.530Z,30.61
2022-08-16T12:29:22.698Z,30.57
2022-08-16T12:32:12.190Z,30.63
2022-08-16T12:34:50.792Z,30.19
2022-08-16T12:37:21.199Z,30.40
2022-08-16T12:39:56.138Z,30.32
2022-08-16T12:42:35.296Z,30.64
2022-08-16T12:45:09.968Z,30.66
2022-08-16T12:48:33.929Z,29.63
2022-08-16T12:51:13.447Z,30.45
2022-08-16T12:53:48.089Z,30.24
2022-08-16T12:56:18.884Z,30.27
2022-08-16T12:58:51.862Z,29.80
2022-08-16T13:01:27.003Z,30.14
2022-08-16T13:04:12.527Z,29.85
2022-08-16T13:06:44.416Z,29.92
2022-08-16T13:09:23.796Z,29.77
2022-08-16T13:12:09.727Z,29.57
2022-08-16T13:14:43.590Z,29.89
2022-08-16T13:17:19.210Z,29.86
2022-08-16T13:20:08.275Z,29.95
2022-08-16T13:22:42.966Z,29.91
2022-08-16T13:25:20.928Z,29.85
2022-08-16T13:28:02.117Z,29.48
2022-08-16T13:30:37.101Z,29.81
2022-08-16T13:33:13.350Z,29.80
2022-08-16T13:35:46.221Z,29.89
2022-08-16T13:38:28.198Z,29.80
2022-08-16T13:41:00.631Z,29.87
2022-08-16T13:43:29.007Z,29.39
2022-08-16T13:46:04.362Z,29.82
2022-08-16T13:48:42.598Z,29.61
2022-08-16T13:51:17.088Z,29.75
2022-08-16T13:53:59.852Z,29.27
2022-08-16T13:56:34.499Z,29.68
2022-08-16T13:59:14.422Z,29.75
2022-08-16T14:01:55.660Z,29.70
2022-08-16T14:04:29.318Z,29.67
2022-08-16T14:06:57.666Z,28.95
2022-08-16T14:09:27.016Z,29.68
2022-08-16T14:11:55.057Z,29.68
2022-08-16T14:14:28.908Z,29.48
2022-08-16T14:17:01.800Z,29.66
2022-08-16T14:19:30.238Z,29.69
2022-08-16T14:22:15.195Z,29.11
2022-08-16T14:24:49.673Z,29.60
2022-08-16T14:27:21.919Z,29.36
2022-08-16T14:29:51.097Z,29.27
2022-08-16T14:32:32.824Z,29.59
2022-08-16T14:35:08.166Z,29.51
2022-08-16T14:37:37.227Z,29.41
2022-08-16T14:40:07.194Z,29.49
2022-08-16T14:42:36.530Z,29.40
2022-08-16T14:45:09.605Z,29.41
2022-08-16T14:47:38.469Z,29.47
2022-08-16T14:50:09.288Z,29.25
2022-08-16T14:52:55.173Z,29.27
2022-08-16T14:55:26.241Z,29.35
2022-08-16T14:57:54.145Z,29.37
2022-08-16T15:00:33.139Z,29.21
2022-08-16T15:03:09.606Z,29.32
2022-08-16T15:05:39.304Z,29.10
2022-08-16T15:08:06.637Z,29.25
2022-08-16T15:10:34.979Z,29.06
2022-08-16T15:13:09.511Z,28.23
2022-08-16T15:15:37.876Z,28.84
2022-08-16T15:18:06.302Z,29.19
2022-08-16T15:20:41.492Z,28.74
2022-08-16T15:23:09.986Z,29.06
2022-08-16T15:25:42.581Z,29.10
2022-08-16T15:28:23.970Z,29.02
2022-08-16T15:31:01.038Z,28.68
2022-08-16T15:33:35.105Z,29.01
2022-08-16T15:36:03.642Z,28.47
2022-08-16T15:38:57.694Z,28.93
2022-08-16T15:41:42.459Z,28.98
2022-08-16T15:44:21.294Z,28.92
2022-08-16T15:46:55.470Z,28.82
2022-08-16T15:49:34.681Z,28.58
2022-08-16T15:52:11.992Z,28.71
2022-08-16T15:54:43.805Z,28.73
2022-08-16T15:57:24.499Z,28.71
2022-08-16T15:59:55.989Z,28.51
2022-08-16T16:02:38.991Z,28.66
2022-08-16T16:05:10.025Z,28.58
2022-08-16T16:07:39.443Z,28.46
2022-08-16T16:10:13.293Z,28.50
2022-08-16T16:12:51.308Z,28.58
2022-08-16T16:15:25.736Z,28.04
2022-08-16T16:17:53.808Z,28.38
2022-08-16T16:20:27.123Z,28.20
2022-08-16T16:23:02.946Z,28.45
2022-08-16T16:25:32.348Z,28.24
2022-08-16T16:28:01.450Z,28.23
2022-08-16T16:30:37.441Z,28.18
2022-08-16T16:33:21.343Z,27.90
2022-08-16T16:35:55.334Z,27.77
2022-08-16T16:38:28.987Z,28.18
2022-08-16T16:40:57.896Z,28.16
2022-08-16T16:43:31.150Z,27.79
2022-08-16T16:45:59.763Z,28.04
2022-08-16T16:48:34.427Z,27.96
2022-08-16T16:51:09.450Z,27.94
2022-08-16T16:53:41.448Z,27.90
2022-08-16T16:56:19.579Z,27.83
2022-08-16T16:58:57.106Z,27.80
2022-08-16T17:01:35.152Z,27.69
2022-08-16T17:04:27.407Z,27.59
2022-08-16T17:07:00.333Z,27.31
2022-08-16T17:09:27.487Z,27.42
2022-08-16T17:11:55.901Z,27.50
2022-08-16T17:14:32.792Z,27.21
2022-08-16T17:17:08.634Z,27.39
2022-08-16T17:19:41.274Z,26.84
2022-08-16T17:22:20.415Z,27.16
2022-08-16T17:24:50.291Z,27.25
2022-08-16T17:30:18.287Z,27.05
2022-08-16T17:32:54.529Z,27.14
2022-08-16T17:35:34.305Z,25.74
2022-08-16T17:38:06.001Z,27.08
2022-08-16T17:39:28.663Z,27.21
2022-08-16T17:40:50.361Z,27.04
2022-08-16T17:43:44.886Z,26.92
2022-08-16T17:46:50.399Z,26.73
2022-08-16T17:49:01.260Z,26.22
2022-08-16T17:51:28.697Z,26.89
2022-08-16T17:53:56.724Z,26.75
2022-08-16T17:56:23.685Z,26.79
2022-08-16T17:58:50.663Z,26.74
2022-08-16T18:04:50.859Z,26.69
2022-08-16T18:07:18.010Z,26.61
2022-08-16T18:09:45.047Z,26.04
2022-08-16T18:12:44.546Z,25.86
2022-08-16T18:15:09.416Z,25.12
2022-08-16T18:18:11.070Z,26.50
2022-08-16T18:20:56.510Z,26.36
2022-08-16T18:23:26.982Z,25.85
2022-08-16T18:25:59.714Z,26.16
2022-08-16T18:28:29.369Z,25.94
2022-08-16T18:31:00.811Z,25.81
2022-08-16T18:33:29.485Z,26.22
2022-08-16T18:35:58.113Z,26.13
2022-08-16T18:38:25.424Z,25.71
2022-08-16T18:40:53.251Z,26.11
2022-08-16T18:44:14.259Z,25.94
2022-08-16T18:46:10.025Z,26.08
2022-08-16T18:48:37.100Z,26.06
2022-08-16T18:51:11.543Z,26.04
2022-08-16T18:53:41.817Z,25.97
2022-08-16T18:56:09.164Z,25.68
2022-08-16T18:58:36.170Z,25.28
2022-08-16T19:01:03.670Z,25.92
2022-08-16T19:03:33.027Z,25.88
2022-08-16T19:06:11.303Z,25.40
2022-08-16T19:08:43.692Z,25.83
2022-08-16T19:11:15.594Z,25.19
2022-08-16T19:13:45.619Z,25.75
2022-08-16T19:16:13.967Z,25.57
2022-08-16T19:18:41.282Z,25.59
2022-08-16T19:21:14.458Z,25.63
2022-08-16T19:23:43.579Z,25.63
2022-08-16T19:26:24.781Z,25.34
2022-08-16T19:28:58.734Z,25.73
2022-08-16T19:31:33.575Z,25.65
2022-08-16T19:34:01.975Z,25.75
2022-08-16T19:36:36.769Z,25.67
2022-08-16T19:39:09.536Z,25.71
2022-08-16T19:41:40.137Z,24.97
2022-08-16T19:44:08.300Z,25.62
2022-08-16T19:46:36.012Z,25.68
2022-08-16T19:49:04.815Z,25.68
2022-08-16T19:51:31.864Z,25.63
2022-08-16T19:53:58.963Z,25.63
2022-08-16T19:56:26.882Z,25.36
2022-08-16T19:59:18.535Z,25.21
2022-08-16T20:01:43.625Z,25.27
2022-08-16T20:04:14.746Z,25.65
2022-08-16T20:06:42.776Z,25.59
2022-08-16T20:09:15.688Z,25.58
2022-08-16T20:11:47.631Z,25.31
2022-08-16T20:14:24.283Z,25.46
2022-08-16T20:16:55.316Z,25.09
2022-08-16T20:19:22.467Z,25.38
2022-08-16T20:21:49.889Z,25.43
2022-08-16T20:24:33.614Z,25.41
2022-08-16T20:27:02.341Z,24.82
2022-08-16T20:29:29.391Z,25.31
2022-08-16T20:31:56.722Z,25.29
2022-08-16T20:34:23.744Z,25.32
2022-08-16T20:36:50.786Z,25.03
2022-08-16T20:39:17.836Z,24.48
2022-08-16T20:41:44.773Z,25.30
2022-08-16T20:44:12.513Z,25.23
2022-08-16T20:46:39.771Z,25.22
2022-08-16T20:49:08.987Z,25.05
2022-08-16T20:51:47.079Z,25.16
2022-08-16T20:54:17.059Z,25.11
2022-08-16T20:56:44.023Z,25.27
2022-08-16T20:59:11.033Z,25.27
2022-08-16T21:01:46.958Z,25.24
2022-08-16T21:04:22.872Z,25.27
2022-08-16T21:06:53.463Z,24.76
2022-08-16T21:09:27.194Z,24.88
2022-08-16T21:12:50.475Z,25.11
2022-08-16T21:18:09.171Z,24.76
2022-08-16T21:21:01.982Z,25.19
2022-08-16T21:23:39.998Z,25.07
2022-08-16T21:26:40.970Z,25.00
2022-08-16T21:29:19.983Z,25.08
2022-08-16T21:31:57.137Z,24.91
2022-08-16T21:35:09.294Z,24.87
2022-08-16T21:38:05.780Z,24.76
2022-08-16T21:40:38.491Z,23.95
2022-08-16T21:43:32.994Z,25.00
2022-08-16T21:46:04.718Z,24.89
2022-08-16T21:48:35.987Z,24.88
2022-08-16T21:51:12.835Z,24.57
2022-08-16T21:54:00.074Z,25.01
2022-08-16T21:59:35.796Z,24.69
2022-08-16T22:02:03.482Z,24.72
2022-08-16T22:04:38.910Z,24.67
2022-08-16T22:07:10.008Z,24.47
2022-08-16T22:09:53.300Z,24.63
2022-08-16T22:12:28.063Z,24.08
2022-08-16T22:14:59.379Z,24.65
2022-08-16T22:17:27.065Z,24.63
2022-08-16T22:19:54.097Z,24.50
2022-08-16T22:22:21.275Z,24.59
2022-08-16T22:24:48.803Z,24.12
2022-08-16T22:27:29.630Z,24.56
2022-08-16T22:29:58.478Z,23.20
2022-08-16T22:32:26.018Z,24.29
2022-08-16T22:34:54.442Z,24.28
2022-08-16T22:37:29.241Z,24.43
2022-08-16T22:39:56.621Z,24.25
2022-08-16T22:42:33.565Z,24.31
2022-08-16T22:45:05.778Z,24.40
2022-08-16T22:47:33.445Z,24.37
2022-08-16T22:50:04.209Z,24.19
2022-08-16T22:52:48.936Z,24.18
2022-08-16T22:55:26.215Z,24.51
2022-08-16T22:58:00.002Z,24.28
2022-08-16T23:00:31.201Z,24.08
2022-08-16T23:03:00.599Z,24.17
2022-08-16T23:05:35.821Z,23.93
2022-08-16T23:08:04.602Z,23.85
2022-08-16T23:10:41.830Z,23.98
2022-08-16T23:13:10.017Z,23.84
2022-08-16T23:15:51.897Z,23.91
2022-08-16T23:18:27.097Z,23.77
2022-08-16T23:20:57.887Z,23.83
2022-08-16T23:23:29.606Z,23.73
2022-08-16T23:25:58.815Z,23.68
2022-08-16T23:28:29.768Z,23.75
2022-08-16T23:30:58.442Z,23.29
2022-08-16T23:33:28.142Z,23.46
2022-08-16T23:35:57.411Z,23.61
2022-08-16T23:38:39.042Z,23.59
2022-08-16T23:41:13.708Z,23.53
2022-08-16T23:43:43.519Z,23.42
2022-08-16T23:46:15.237Z,23.43
2022-08-16T23:49:59.137Z,23.30
2022-08-16T23:51:38.477Z,23.20
2022-08-16T23:54:08.445Z,23.37
2022-08-16T23:56:40.256Z,22.97
2022-08-16T23:59:07.855Z,23.31
